createdAt,value
2022-07-27T00:01:02.638Z,1.00
2022-07-27T00:03:31.666Z,0.88
2022-07-27T00:05:58.431Z,0.65
2022-07-27T00:08:25.422Z,0.82
2022-07-27T00:10:55.593Z,0.90
2022-07-27T00:13:22.349Z,0.60
2022-07-27T00:15:49.199Z,0.98
2022-07-27T00:18:16.004Z,0.80
2022-07-27T00:20:42.851Z,0.85
2022-07-27T00:23:10.267Z,0.60
2022-07-27T00:25:37.017Z,1.00
2022-07-27T00:28:04.006Z,1.23
2022-07-27T00:30:30.789Z,0.90
2022-07-27T00:32:57.616Z,0.80
2022-07-27T00:35:25.517Z,0.93
2022-07-27T00:37:52.333Z,0.77
2022-07-27T00:40:19.060Z,0.70
2022-07-27T00:42:45.841Z,0.75
2022-07-27T00:45:12.563Z,0.93
2022-07-27T00:47:39.353Z,0.82
2022-07-27T00:50:06.803Z,0.85
2022-07-27T00:52:34.341Z,0.80
2022-07-27T00:55:01.367Z,0.93
2022-07-27T00:57:28.405Z,1.00
2022-07-27T00:59:55.124Z,1.02
2022-07-27T01:02:23.032Z,0.90
2022-07-27T01:04:53.598Z,0.98
2022-07-27T01:07:21.823Z,0.70
2022-07-27T01:09:56.712Z,0.75
2022-07-27T01:12:27.761Z,0.80
2022-07-27T01:14:55.673Z,0.90
2022-07-27T01:17:22.916Z,0.93
2022-07-27T01:19:50.150Z,0.60
2022-07-27T01:22:16.874Z,1.02
2022-07-27T01:24:43.651Z,0.88
2022-07-27T01:27:10.340Z,0.82
2022-07-27T01:29:37.185Z,0.80
2022-07-27T01:32:04.622Z,0.60
2022-07-27T01:34:33.710Z,1.00
2022-07-27T01:37:01.647Z,0.93
2022-07-27T01:39:28.637Z,0.95
2022-07-27T01:41:55.525Z,1.05
2022-07-27T01:44:22.278Z,1.00
2022-07-27T01:46:49.434Z,1.35
2022-07-27T01:49:16.714Z,0.80
2022-07-27T01:51:43.691Z,0.70
2022-07-27T01:54:10.435Z,0.98
2022-07-27T01:56:37.119Z,0.68
2022-07-27T01:59:04.062Z,0.80
2022-07-27T02:01:30.941Z,1.02
2022-07-27T02:03:57.956Z,0.88
2022-07-27T02:06:24.659Z,1.27
2022-07-27T02:08:51.453Z,0.85
2022-07-27T02:11:36.822Z,0.70
2022-07-27T02:14:03.599Z,1.00
2022-07-27T02:16:30.477Z,1.00
2022-07-27T02:18:57.746Z,0.90
2022-07-27T02:21:24.485Z,0.73
2022-07-27T02:23:51.313Z,1.90
2022-07-27T02:26:18.106Z,0.82
2022-07-27T02:28:44.804Z,1.00
2022-07-27T02:31:11.523Z,0.80
2022-07-27T02:33:38.222Z,0.70
2022-07-27T02:36:05.285Z,0.68
2022-07-27T02:38:32.090Z,0.70
2022-07-27T02:40:58.858Z,0.80
2022-07-27T02:43:25.567Z,0.63
2022-07-27T02:45:52.490Z,0.85
2022-07-27T02:48:19.256Z,0.80
2022-07-27T02:50:46.062Z,0.77
2022-07-27T02:53:12.870Z,1.48
2022-07-27T02:55:39.556Z,1.08
2022-07-27T02:58:06.325Z,0.95
2022-07-27T03:00:34.054Z,0.93
2022-07-27T03:03:00.830Z,1.17
2022-07-27T03:05:27.532Z,0.85
2022-07-27T03:07:54.300Z,0.70
2022-07-27T03:10:20.952Z,0.57
2022-07-27T03:12:47.644Z,0.70
2022-07-27T03:15:14.364Z,0.98
2022-07-27T03:17:41.113Z,0.70
2022-07-27T03:20:09.377Z,0.88
2022-07-27T03:22:37.492Z,0.68
2022-07-27T03:25:04.535Z,1.00
2022-07-27T03:27:31.258Z,1.02
2022-07-27T03:29:58.325Z,1.08
2022-07-27T03:32:25.039Z,1.05
2022-07-27T03:34:52.026Z,1.02
2022-07-27T03:37:20.167Z,1.35
2022-07-27T03:39:47.142Z,0.73
2022-07-27T03:42:13.903Z,1.00
2022-07-27T03:44:40.597Z,0.80
2022-07-27T03:47:07.345Z,0.60
2022-07-27T03:49:34.306Z,0.85
2022-07-27T03:52:01.211Z,0.82
2022-07-27T03:54:28.305Z,0.70
2022-07-27T03:56:55.080Z,1.30
2022-07-27T03:59:21.795Z,0.90
2022-07-27T04:01:48.550Z,0.77
2022-07-27T04:04:15.337Z,0.93
2022-07-27T04:06:42.065Z,0.80
2022-07-27T04:09:09.228Z,0.63
2022-07-27T04:11:37.834Z,0.93
2022-07-27T04:14:12.948Z,0.70
2022-07-27T04:16:40.359Z,1.00
2022-07-27T04:19:07.567Z,0.88
2022-07-27T04:21:37.062Z,0.73
2022-07-27T04:24:04.075Z,1.85
2022-07-27T04:26:30.923Z,0.90
2022-07-27T04:28:57.609Z,0.85
2022-07-27T04:31:24.412Z,0.80
2022-07-27T04:33:54.313Z,1.42
2022-07-27T04:36:21.060Z,1.05
2022-07-27T04:38:47.779Z,1.10
2022-07-27T04:41:14.594Z,1.08
2022-07-27T04:43:41.509Z,1.17
2022-07-27T04:46:11.874Z,0.95
2022-07-27T04:48:41.948Z,0.95
2022-07-27T04:51:16.857Z,1.38
2022-07-27T04:53:53.755Z,0.98
2022-07-27T04:56:26.582Z,0.90
2022-07-27T04:58:53.905Z,0.90
2022-07-27T05:01:20.683Z,1.33
2022-07-27T05:03:47.508Z,0.80
2022-07-27T05:06:14.638Z,1.10
2022-07-27T05:08:41.326Z,0.93
2022-07-27T05:11:08.070Z,0.98
2022-07-27T05:13:37.959Z,0.70
2022-07-27T05:16:05.008Z,0.88
2022-07-27T05:18:32.470Z,0.70
2022-07-27T05:20:59.292Z,1.15
2022-07-27T05:23:26.005Z,0.75
2022-07-27T05:25:52.701Z,1.00
2022-07-27T05:28:19.569Z,1.02
2022-07-27T05:30:46.465Z,1.00
2022-07-27T05:33:13.248Z,0.90
2022-07-27T05:35:40.399Z,0.82
2022-07-27T05:38:07.215Z,0.98
2022-07-27T05:40:34.004Z,1.20
2022-07-27T05:43:00.980Z,0.82
2022-07-27T05:45:27.886Z,1.48
2022-07-27T05:47:54.771Z,0.90
2022-07-27T05:50:21.644Z,0.80
2022-07-27T05:52:48.408Z,1.40
2022-07-27T05:55:15.353Z,1.10
2022-07-27T05:57:42.241Z,0.80
2022-07-27T06:00:10.006Z,0.88
2022-07-27T06:02:40.435Z,0.80
2022-07-27T06:05:11.912Z,0.95
2022-07-27T06:08:00.640Z,1.27
2022-07-27T06:10:32.876Z,0.85
2022-07-27T06:13:01.260Z,0.60
2022-07-27T06:15:28.050Z,1.02
2022-07-27T06:17:55.042Z,0.95
2022-07-27T06:20:22.833Z,0.88
2022-07-27T06:22:52.138Z,0.93
2022-07-27T06:25:20.048Z,0.75
2022-07-27T06:27:47.001Z,0.73
2022-07-27T06:30:15.642Z,1.05
2022-07-27T06:32:43.689Z,1.00
2022-07-27T06:35:11.470Z,1.00
2022-07-27T06:37:44.270Z,0.80
2022-07-27T06:40:13.545Z,1.00
2022-07-27T06:42:41.709Z,0.73
2022-07-27T06:45:09.771Z,0.75
2022-07-27T06:47:49.196Z,0.80
2022-07-27T06:50:20.813Z,0.60
2022-07-27T06:52:48.561Z,0.77
2022-07-27T06:55:15.578Z,0.90
2022-07-27T06:57:43.521Z,0.57
2022-07-27T07:00:11.608Z,1.13
2022-07-27T07:02:38.739Z,0.68
2022-07-27T07:05:08.770Z,0.63
2022-07-27T07:07:35.532Z,0.70
2022-07-27T07:10:02.322Z,0.90
2022-07-27T07:12:29.132Z,0.70
2022-07-27T07:14:55.986Z,2.25
2022-07-27T07:17:22.737Z,0.77
2022-07-27T07:19:49.557Z,0.80
2022-07-27T07:22:21.893Z,0.93
2022-07-27T07:24:48.591Z,0.65
2022-07-27T07:27:15.383Z,0.60
2022-07-27T07:29:42.071Z,1.00
2022-07-27T07:32:08.782Z,0.93
2022-07-27T07:34:35.625Z,0.70
2022-07-27T07:37:02.486Z,0.75
2022-07-27T07:39:31.393Z,0.70
2022-07-27T07:41:58.471Z,0.80
2022-07-27T07:44:25.632Z,0.60
2022-07-27T07:46:52.515Z,0.80
2022-07-27T07:49:21.490Z,0.65
2022-07-27T07:52:06.250Z,0.60
2022-07-27T07:54:33.023Z,0.80
2022-07-27T07:56:59.799Z,0.57
2022-07-27T07:59:26.536Z,0.60
2022-07-27T08:01:53.284Z,0.57
2022-07-27T08:04:20.140Z,1.05
2022-07-27T08:06:46.985Z,0.52
2022-07-27T08:09:15.366Z,0.90
2022-07-27T08:11:42.297Z,0.65
2022-07-27T08:14:09.020Z,0.60
2022-07-27T08:16:35.864Z,0.93
2022-07-27T08:19:02.812Z,0.75
2022-07-27T08:21:30.838Z,0.50
2022-07-27T08:24:02.854Z,0.47
2022-07-27T08:26:29.843Z,0.68
2022-07-27T08:28:56.646Z,0.50
2022-07-27T08:31:26.546Z,0.50
2022-07-27T08:34:13.263Z,0.60
2022-07-27T08:36:39.999Z,0.60
2022-07-27T08:39:08.881Z,0.68
2022-07-27T08:41:39.910Z,0.45
2022-07-27T08:44:13.522Z,0.70
2022-07-27T08:46:43.048Z,0.50
2022-07-27T08:49:10.411Z,0.50
2022-07-27T08:51:37.507Z,0.60
2022-07-27T08:54:04.433Z,0.65
2022-07-27T08:56:31.169Z,0.50
2022-07-27T08:58:57.865Z,0.82
2022-07-27T09:01:24.643Z,0.70
2022-07-27T09:03:51.467Z,0.35
2022-07-27T09:06:44.004Z,0.55
2022-07-27T09:09:12.560Z,0.50
2022-07-27T09:11:39.672Z,0.60
2022-07-27T09:14:08.443Z,0.75
2022-07-27T09:17:14.913Z,0.70
2022-07-27T09:19:22.653Z,0.30
2022-07-27T09:21:49.357Z,0.40
2022-07-27T09:24:45.764Z,0.50
2022-07-27T09:27:04.946Z,0.68
2022-07-27T09:29:36.385Z,0.60
2022-07-27T09:32:14.810Z,0.50
2022-07-27T09:34:41.715Z,0.50
2022-07-27T09:37:10.012Z,0.40
2022-07-27T09:39:36.806Z,0.50
2022-07-27T09:42:03.570Z,0.52
2022-07-27T09:44:43.878Z,0.60
2022-07-27T09:47:27.117Z,0.60
2022-07-27T09:50:17.686Z,0.50
2022-07-27T09:52:44.728Z,0.55
2022-07-27T09:55:11.807Z,0.50
2022-07-27T09:57:56.868Z,0.60
2022-07-27T10:00:24.473Z,0.60
2022-07-27T10:02:52.464Z,0.57
2022-07-27T10:05:21.682Z,0.55
2022-07-27T10:07:49.393Z,0.52
2022-07-27T10:10:17.116Z,0.60
2022-07-27T10:12:46.873Z,0.75
2022-07-27T10:15:17.179Z,0.55
2022-07-27T10:17:44.561Z,0.60
2022-07-27T10:20:12.631Z,0.73
2022-07-27T10:22:56.469Z,0.50
2022-07-27T10:25:27.362Z,0.77
2022-07-27T10:28:17.713Z,0.60
2022-07-27T10:30:48.112Z,0.50
2022-07-27T10:33:55.404Z,0.68
2022-07-27T10:36:31.215Z,0.88
2022-07-27T10:39:00.233Z,0.50
2022-07-27T10:41:28.879Z,0.60
2022-07-27T10:44:15.187Z,0.50
2022-07-27T10:47:00.764Z,0.77
2022-07-27T10:49:33.038Z,0.57
2022-07-27T10:52:07.244Z,0.77
2022-07-27T10:54:40.161Z,0.47
2022-07-27T10:57:09.064Z,0.88
2022-07-27T11:00:08.764Z,0.35
2022-07-27T11:02:41.285Z,0.50
2022-07-27T11:05:32.527Z,0.60
2022-07-27T11:08:34.562Z,0.70
2022-07-27T11:10:48.594Z,0.65
2022-07-27T11:13:19.258Z,0.35
2022-07-27T11:16:09.661Z,0.60
2022-07-27T11:18:45.425Z,0.30
2022-07-27T11:21:25.855Z,0.55
2022-07-27T11:24:15.066Z,0.40
2022-07-27T11:26:47.885Z,0.63
2022-07-27T11:29:16.475Z,0.88
2022-07-27T11:31:55.242Z,0.70
2022-07-27T11:34:34.198Z,1.08
2022-07-27T11:37:03.278Z,0.55
2022-07-27T11:42:21.077Z,0.52
2022-07-27T11:44:48.848Z,0.60
2022-07-27T11:47:21.093Z,0.70
2022-07-27T11:49:48.113Z,0.60
2022-07-27T11:52:17.798Z,0.40
2022-07-27T11:54:51.772Z,0.60
2022-07-27T11:57:20.858Z,0.40
2022-07-27T11:59:48.441Z,0.60
2022-07-27T12:02:20.593Z,0.70
2022-07-27T12:04:49.756Z,0.35
2022-07-27T12:07:31.793Z,0.60
2022-07-27T12:10:00.341Z,0.63
2022-07-27T12:12:35.077Z,0.63
2022-07-27T12:15:16.610Z,0.68
2022-07-27T12:18:00.100Z,0.70
2022-07-27T12:20:35.377Z,0.30
2022-07-27T12:23:07.255Z,0.50
2022-07-27T12:25:35.826Z,0.60
2022-07-27T12:28:13.400Z,0.43
2022-07-27T12:30:52.190Z,0.50
2022-07-27T12:33:29.788Z,0.70
2022-07-27T12:35:57.939Z,0.80
2022-07-27T12:38:41.016Z,0.55
2022-07-27T12:41:08.344Z,0.47
2022-07-27T12:43:35.428Z,0.85
2022-07-27T12:46:13.689Z,0.50
2022-07-27T12:48:42.907Z,0.50
2022-07-27T12:51:11.180Z,0.60
2022-07-27T12:53:39.231Z,0.50
2022-07-27T12:56:10.457Z,0.40
2022-07-27T12:58:38.120Z,0.73
2022-07-27T13:01:05.632Z,0.60
2022-07-27T13:03:33.546Z,0.65
2022-07-27T13:06:05.833Z,0.47
2022-07-27T13:08:37.675Z,0.45
2022-07-27T13:11:04.463Z,0.77
2022-07-27T13:13:31.358Z,0.60
2022-07-27T13:15:58.168Z,0.50
2022-07-27T13:18:24.996Z,0.52
2022-07-27T13:20:52.092Z,0.60
2022-07-27T13:23:18.992Z,0.60
2022-07-27T13:25:45.831Z,0.60
2022-07-27T13:28:12.860Z,0.70
2022-07-27T13:30:39.817Z,0.80
2022-07-27T13:33:06.679Z,1.05
2022-07-27T13:35:33.580Z,0.60
2022-07-27T13:38:00.459Z,1.10
2022-07-27T13:40:27.232Z,0.60
2022-07-27T13:42:54.065Z,0.68
2022-07-27T13:45:20.980Z,0.68
2022-07-27T13:47:47.828Z,0.55
2022-07-27T13:50:19.239Z,0.70
2022-07-27T13:52:47.731Z,0.55
2022-07-27T13:55:15.959Z,0.88
2022-07-27T13:57:42.822Z,0.70
2022-07-27T14:00:10.400Z,0.75
2022-07-27T14:02:37.212Z,0.82
2022-07-27T14:05:06.081Z,0.57
2022-07-27T14:07:33.591Z,0.60
2022-07-27T14:10:32.699Z,0.85
2022-07-27T14:13:08.291Z,0.60
2022-07-27T14:15:50.426Z,0.60
2022-07-27T14:18:23.474Z,0.90
2022-07-27T14:20:50.371Z,0.70
2022-07-27T14:23:17.165Z,0.60
2022-07-27T14:25:43.880Z,0.73
2022-07-27T14:28:10.701Z,0.70
2022-07-27T14:30:37.678Z,1.40
2022-07-27T14:33:04.445Z,0.80
2022-07-27T14:35:31.240Z,0.73
2022-07-27T14:38:00.296Z,0.85
2022-07-27T14:40:27.099Z,0.60
2022-07-27T14:42:54.346Z,0.70
2022-07-27T14:45:21.172Z,0.50
2022-07-27T14:47:47.935Z,0.80
2022-07-27T14:50:15.192Z,0.70
2022-07-27T14:52:42.285Z,0.77
2022-07-27T14:55:09.624Z,0.65
2022-07-27T14:57:37.108Z,0.85
2022-07-27T15:00:14.595Z,0.70
2022-07-27T15:02:42.625Z,0.80
2022-07-27T15:05:10.183Z,0.68
2022-07-27T15:07:37.518Z,0.68
2022-07-27T15:10:06.008Z,0.52
2022-07-27T15:12:37.541Z,0.75
2022-07-27T15:15:06.861Z,1.33
2022-07-27T15:17:33.949Z,0.65
2022-07-27T15:20:07.154Z,0.75
2022-07-27T15:22:34.090Z,0.65
2022-07-27T15:25:00.918Z,0.70
2022-07-27T15:27:27.687Z,0.70
2022-07-27T15:29:55.115Z,0.70
2022-07-27T15:32:21.946Z,0.55
2022-07-27T15:34:50.218Z,1.13
2022-07-27T15:37:17.044Z,0.40
2022-07-27T15:39:43.937Z,0.57
2022-07-27T15:42:10.725Z,0.50
2022-07-27T15:44:37.896Z,0.52
2022-07-27T15:47:04.865Z,0.68
2022-07-27T15:49:31.887Z,0.60
2022-07-27T15:51:58.834Z,0.70
2022-07-27T15:54:27.994Z,0.98
2022-07-27T15:56:57.080Z,0.77
2022-07-27T15:59:24.034Z,0.88
2022-07-27T16:01:50.835Z,0.60
2022-07-27T16:04:20.557Z,0.57
2022-07-27T16:06:47.435Z,0.45
2022-07-27T16:09:14.591Z,0.50
2022-07-27T16:11:41.619Z,0.50
2022-07-27T16:14:08.676Z,0.73
2022-07-27T16:16:35.687Z,0.60
2022-07-27T16:19:13.401Z,0.63
2022-07-27T16:21:54.685Z,0.50
2022-07-27T16:24:26.333Z,0.60
2022-07-27T16:26:53.141Z,0.93
2022-07-27T16:29:20.095Z,0.60
2022-07-27T16:31:47.000Z,0.65
2022-07-27T16:34:13.775Z,0.65
2022-07-27T16:36:41.613Z,1.20
2022-07-27T16:39:08.391Z,0.73
2022-07-27T16:41:35.262Z,1.08
2022-07-27T16:44:02.104Z,1.58
2022-07-27T16:46:29.255Z,2.13
2022-07-27T16:48:56.209Z,1.85
2022-07-27T16:51:23.024Z,4.13
2022-07-27T16:53:50.338Z,1.85
2022-07-27T16:56:17.733Z,1.60
2022-07-27T16:58:45.181Z,0.90
2022-07-27T17:01:15.154Z,1.52
2022-07-27T17:03:52.962Z,1.00
2022-07-27T17:06:19.884Z,1.70
2022-07-27T17:08:46.728Z,3.38
2022-07-27T17:11:13.686Z,2.25
2022-07-27T17:13:46.202Z,2.53
2022-07-27T17:16:16.176Z,2.05
2022-07-27T17:18:43.089Z,1.33
2022-07-27T17:21:12.938Z,2.30
2022-07-27T17:23:41.302Z,2.20
2022-07-27T17:26:08.992Z,1.85
2022-07-27T17:28:39.375Z,1.00
2022-07-27T17:31:12.290Z,1.95
2022-07-27T17:33:40.215Z,1.60
2022-07-27T17:36:13.761Z,1.05
2022-07-27T17:38:45.227Z,1.63
2022-07-27T17:41:12.845Z,0.85
2022-07-27T17:43:40.323Z,1.20
2022-07-27T17:46:09.005Z,1.13
2022-07-27T17:48:36.884Z,1.10
2022-07-27T17:51:05.382Z,0.73
2022-07-27T17:53:32.619Z,0.75
2022-07-27T17:56:00.788Z,0.70
2022-07-27T17:58:30.183Z,0.80
2022-07-27T18:00:57.643Z,0.80
2022-07-27T18:03:24.496Z,0.55
2022-07-27T18:05:51.336Z,0.57
2022-07-27T18:08:18.256Z,1.45
2022-07-27T18:10:44.920Z,0.73
2022-07-27T18:13:12.443Z,0.80
2022-07-27T18:15:48.294Z,0.68
2022-07-27T18:18:19.971Z,1.02
2022-07-27T18:20:48.413Z,1.02
2022-07-27T18:23:16.186Z,0.60
2022-07-27T18:25:44.362Z,0.80
2022-07-27T18:28:11.511Z,0.85
2022-07-27T18:30:38.453Z,1.00
2022-07-27T18:33:05.440Z,0.70
2022-07-27T18:35:32.481Z,0.80
2022-07-27T18:37:59.359Z,0.90
2022-07-27T18:40:26.119Z,0.90
2022-07-27T18:42:52.912Z,0.80
2022-07-27T18:45:19.742Z,0.75
2022-07-27T18:47:49.288Z,0.88
2022-07-27T18:50:17.734Z,0.80
2022-07-27T18:52:44.586Z,0.77
2022-07-27T18:55:11.618Z,0.90
2022-07-27T18:57:38.567Z,0.85
2022-07-27T19:00:07.087Z,0.80
2022-07-27T19:02:39.100Z,0.90
2022-07-27T19:05:09.244Z,0.80
2022-07-27T19:07:39.348Z,1.30
2022-07-27T19:10:07.836Z,0.85
2022-07-27T19:12:34.826Z,0.82
2022-07-27T19:15:01.578Z,0.98
2022-07-27T19:17:28.324Z,0.73
2022-07-27T19:19:55.036Z,0.82
2022-07-27T19:22:21.795Z,1.02
2022-07-27T19:24:54.402Z,1.08
2022-07-27T19:27:21.935Z,1.10
2022-07-27T19:29:48.839Z,0.75
2022-07-27T19:32:16.955Z,0.93
2022-07-27T19:34:43.897Z,0.95
2022-07-27T19:37:11.551Z,0.90
2022-07-27T19:39:58.560Z,1.02
2022-07-27T19:42:25.295Z,1.10
2022-07-27T19:44:52.216Z,0.82
2022-07-27T19:47:19.110Z,1.20
2022-07-27T19:49:45.843Z,0.90
2022-07-27T19:52:12.597Z,1.15
2022-07-27T19:54:39.501Z,1.50
2022-07-27T19:57:06.224Z,1.83
2022-07-27T19:59:55.378Z,2.20
2022-07-27T20:02:20.022Z,1.52
2022-07-27T20:04:46.868Z,1.20
2022-07-27T20:07:13.772Z,1.27
2022-07-27T20:09:40.859Z,1.20
2022-07-27T20:12:08.485Z,1.45
2022-07-27T20:14:36.446Z,2.25
2022-07-27T20:17:04.011Z,1.50
2022-07-27T20:19:31.222Z,1.80
2022-07-27T20:21:59.901Z,1.75
2022-07-27T20:24:27.933Z,1.00
2022-07-27T20:26:55.190Z,1.08
2022-07-27T20:29:22.011Z,1.10
2022-07-27T20:31:49.796Z,1.20
2022-07-27T20:34:19.375Z,0.80
2022-07-27T20:36:46.107Z,1.08
2022-07-27T20:39:17.319Z,1.27
2022-07-27T20:41:44.608Z,0.90
2022-07-27T20:44:11.452Z,0.90
2022-07-27T20:46:38.212Z,0.90
2022-07-27T20:49:05.150Z,0.85
2022-07-27T20:51:32.150Z,0.75
2022-07-27T20:53:59.062Z,1.00
2022-07-27T20:56:25.884Z,1.30
2022-07-27T20:58:52.601Z,1.02
2022-07-27T21:01:19.625Z,0.95
2022-07-27T21:03:46.486Z,1.27
2022-07-27T21:06:13.355Z,1.10
2022-07-27T21:08:45.919Z,0.95
2022-07-27T21:11:13.763Z,0.88
2022-07-27T21:13:40.961Z,0.80
2022-07-27T21:16:07.865Z,1.10
2022-07-27T21:18:34.763Z,1.30
2022-07-27T21:21:01.696Z,0.80
2022-07-27T21:23:47.092Z,1.00
2022-07-27T21:26:18.110Z,1.05
2022-07-27T21:28:45.369Z,0.88
2022-07-27T21:31:12.136Z,1.10
2022-07-27T21:33:39.883Z,1.27
2022-07-27T21:36:07.381Z,1.00
2022-07-27T21:38:34.321Z,0.95
2022-07-27T21:41:01.194Z,1.20
2022-07-27T21:43:30.648Z,1.42
2022-07-27T21:45:57.390Z,0.88
2022-07-27T21:48:24.143Z,0.80
2022-07-27T21:50:50.922Z,1.02
2022-07-27T21:53:17.713Z,1.08
2022-07-27T21:55:44.654Z,1.33
2022-07-27T21:58:12.455Z,1.23
2022-07-27T22:00:39.296Z,0.77
2022-07-27T22:03:06.438Z,0.98
2022-07-27T22:05:33.490Z,1.20
2022-07-27T22:08:01.037Z,0.95
2022-07-27T22:10:28.506Z,0.82
2022-07-27T22:12:55.442Z,1.40
2022-07-27T22:15:22.114Z,1.30
2022-07-27T22:17:50.713Z,1.05
2022-07-27T22:20:18.663Z,0.85
2022-07-27T22:22:47.367Z,0.80
2022-07-27T22:25:14.825Z,1.00
2022-07-27T22:27:41.784Z,1.35
2022-07-27T22:30:09.298Z,1.30
2022-07-27T22:32:36.301Z,1.23
2022-07-27T22:35:03.535Z,1.50
2022-07-27T22:37:30.455Z,1.20
2022-07-27T22:39:57.161Z,1.40
2022-07-27T22:42:23.829Z,1.27
2022-07-27T22:44:50.549Z,2.10
2022-07-27T22:47:17.327Z,1.35
2022-07-27T22:49:44.215Z,1.38
2022-07-27T22:52:11.075Z,1.20
2022-07-27T22:54:38.794Z,1.25
2022-07-27T22:57:06.164Z,1.35
2022-07-27T22:59:33.371Z,1.08
2022-07-27T23:02:00.496Z,1.52
2022-07-27T23:04:27.273Z,1.20
2022-07-27T23:06:54.099Z,1.02
2022-07-27T23:09:21.411Z,1.08
2022-07-27T23:11:48.165Z,1.77
2022-07-27T23:14:15.330Z,1.30
2022-07-27T23:16:43.506Z,1.60
2022-07-27T23:19:10.503Z,1.27
2022-07-27T23:21:37.599Z,1.20
2022-07-27T23:24:05.411Z,1.42
2022-07-27T23:26:32.359Z,1.17
2022-07-27T23:29:00.583Z,1.40
2022-07-27T23:31:29.471Z,1.40
2022-07-27T23:33:56.567Z,1.40
2022-07-27T23:36:23.293Z,1.58
2022-07-27T23:38:50.035Z,1.73
2022-07-27T23:41:16.791Z,1.60
2022-07-27T23:43:43.945Z,1.50
2022-07-27T23:46:10.836Z,1.90
2022-07-27T23:48:37.817Z,1.65
2022-07-27T23:51:04.550Z,1.40
2022-07-27T23:53:31.247Z,1.33
2022-07-27T23:55:58.502Z,1.63
2022-07-27T23:58:25.238Z,1.20
